Terminal Aerodrome Forecast
Issued by NWS Blacksburg, VA

Current Version | Previous Version | Graphics & Text | Print | Product List | Glossary On
Versions: 1 2 3 4 5 6 7 8 9 10 11 12 13 14 15 16 17 18 19 20 21 22 23 24 25 26 27 28 29 30 31 32 33
000
FTUS41 KRNK 021728
TAFBLF
TAF
KBLF 021728Z 0218/0318 31006KT P6SM VCSH BKN040
     FM030000 25002KT P6SM BKN040
     FM030900 25002KT P6SM BKN025
      TEMPO 0309/0312 4SM BR
     FM031600 32008KT P6SM BKN040=

USA.gov is the U.S. government's official web portal to all federal, state and local government web resources and services.